sensor_id;sensor_type;location;lat;lon;timestamp;P1;durP1;ratioP1;P2;durP2;ratioP2
47153;SDS011;32907;41.412;2.164;2023-12-20T00:02:13;5.35;;;4.57;;
47153;SDS011;32907;41.412;2.164;2023-12-20T00:04:42;5.85;;;5.25;;
47153;SDS011;32907;41.412;2.164;2023-12-20T00:07:10;6.25;;;5.30;;
47153;SDS011;32907;41.412;2.164;2023-12-20T00:09:38;5.40;;;4.90;;
47153;SDS011;32907;41.412;2.164;2023-12-20T00:12:06;5.47;;;4.93;;
47153;SDS011;32907;41.412;2.164;2023-12-20T00:14:35;6.00;;;5.40;;
47153;SDS011;32907;41.412;2.164;2023-12-20T00:17:03;7.50;;;6.20;;
47153;SDS011;32907;41.412;2.164;2023-12-20T00:19:32;8.07;;;5.95;;
47153;SDS011;32907;41.412;2.164;2023-12-20T00:22:00;9.90;;;6.85;;
47153;SDS011;32907;41.412;2.164;2023-12-20T00:24:28;7.43;;;6.50;;
47153;SDS011;32907;41.412;2.164;2023-12-20T00:26:56;8.95;;;6.63;;
47153;SDS011;32907;41.412;2.164;2023-12-20T00:29:24;8.10;;;6.78;;
47153;SDS011;32907;41.412;2.164;2023-12-20T00:31:52;7.45;;;6.60;;
47153;SDS011;32907;41.412;2.164;2023-12-20T00:34:20;7.80;;;6.45;;
47153;SDS011;32907;41.412;2.164;2023-12-20T00:36:49;8.05;;;6.07;;
47153;SDS011;32907;41.412;2.164;2023-12-20T00:39:17;8.00;;;6.28;;
47153;SDS011;32907;41.412;2.164;2023-12-20T00:41:45;6.88;;;5.82;;
47153;SDS011;32907;41.412;2.164;2023-12-20T00:44:14;6.75;;;5.82;;
47153;SDS011;32907;41.412;2.164;2023-12-20T00:46:42;8.10;;;5.53;;
47153;SDS011;32907;41.412;2.164;2023-12-20T00:49:10;7.38;;;6.47;;
47153;SDS011;32907;41.412;2.164;2023-12-20T00:51:38;6.38;;;5.43;;
47153;SDS011;32907;41.412;2.164;2023-12-20T00:54:06;5.95;;;5.38;;
47153;SDS011;32907;41.412;2.164;2023-12-20T00:56:35;9.20;;;6.13;;
47153;SDS011;32907;41.412;2.164;2023-12-20T00:59:03;6.65;;;5.95;;
47153;SDS011;32907;41.412;2.164;2023-12-20T01:01:31;7.75;;;5.38;;
47153;SDS011;32907;41.412;2.164;2023-12-20T01:04:00;6.55;;;5.65;;
47153;SDS011;32907;41.412;2.164;2023-12-20T01:06:29;6.95;;;6.10;;
47153;SDS011;32907;41.412;2.164;2023-12-20T01:08:57;7.28;;;6.55;;
47153;SDS011;32907;41.412;2.164;2023-12-20T01:11:25;6.75;;;6.05;;
47153;SDS011;32907;41.412;2.164;2023-12-20T01:13:53;7.07;;;6.38;;
47153;SDS011;32907;41.412;2.164;2023-12-20T01:16:21;7.57;;;6.00;;
47153;SDS011;32907;41.412;2.164;2023-12-20T01:18:49;6.38;;;5.78;;
47153;SDS011;32907;41.412;2.164;2023-12-20T01:21:17;6.05;;;5.45;;
47153;SDS011;32907;41.412;2.164;2023-12-20T01:23:45;6.50;;;5.78;;
47153;SDS011;32907;41.412;2.164;2023-12-20T01:26:14;7.63;;;6.85;;
47153;SDS011;32907;41.412;2.164;2023-12-20T01:28:43;7.00;;;6.30;;
47153;SDS011;32907;41.412;2.164;2023-12-20T01:31:11;7.32;;;6.30;;
47153;SDS011;32907;41.412;2.164;2023-12-20T01:33:39;7.32;;;6.63;;
47153;SDS011;32907;41.412;2.164;2023-12-20T01:36:07;7.28;;;6.45;;
47153;SDS011;32907;41.412;2.164;2023-12-20T01:38:36;6.93;;;6.20;;
47153;SDS011;32907;41.412;2.164;2023-12-20T01:41:04;7.25;;;6.43;;
47153;SDS011;32907;41.412;2.164;2023-12-20T01:43:32;7.18;;;6.47;;
47153;SDS011;32907;41.412;2.164;2023-12-20T01:46:16;7.10;;;6.40;;
47153;SDS011;32907;41.412;2.164;2023-12-20T01:48:47;7.28;;;6.57;;
47153;SDS011;32907;41.412;2.164;2023-12-20T01:51:16;6.43;;;5.72;;
47153;SDS011;32907;41.412;2.164;2023-12-20T01:53:45;6.85;;;6.15;;
47153;SDS011;32907;41.412;2.164;2023-12-20T01:56:15;7.95;;;7.15;;
47153;SDS011;32907;41.412;2.164;2023-12-20T01:58:44;7.65;;;6.40;;
47153;SDS011;32907;41.412;2.164;2023-12-20T02:01:14;7.70;;;6.60;;
47153;SDS011;32907;41.412;2.164;2023-12-20T02:03:43;7.65;;;6.82;;
47153;SDS011;32907;41.412;2.164;2023-12-20T02:06:11;7.13;;;6.40;;
47153;SDS011;32907;41.412;2.164;2023-12-20T02:08:40;7.60;;;6.80;;
47153;SDS011;32907;41.412;2.164;2023-12-20T02:11:08;7.28;;;6.43;;
47153;SDS011;32907;41.412;2.164;2023-12-20T02:13:36;7.43;;;6.18;;
47153;SDS011;32907;41.412;2.164;2023-12-20T02:16:05;8.13;;;7.15;;
47153;SDS011;32907;41.412;2.164;2023-12-20T02:18:35;7.50;;;6.70;;
47153;SDS011;32907;41.412;2.164;2023-12-20T02:21:04;7.97;;;6.55;;
47153;SDS011;32907;41.412;2.164;2023-12-20T02:23:33;8.35;;;7.18;;
47153;SDS011;32907;41.412;2.164;2023-12-20T02:26:02;7.88;;;7.10;;
47153;SDS011;32907;41.412;2.164;2023-12-20T02:28:32;8.32;;;7.53;;
47153;SDS011;32907;41.412;2.164;2023-12-20T02:31:01;7.35;;;6.57;;
47153;SDS011;32907;41.412;2.164;2023-12-20T02:33:29;8.40;;;7.60;;
47153;SDS011;32907;41.412;2.164;2023-12-20T02:35:57;8.50;;;7.40;;
47153;SDS011;32907;41.412;2.164;2023-12-20T02:38:25;9.35;;;7.85;;
47153;SDS011;32907;41.412;2.164;2023-12-20T02:40:53;8.73;;;7.30;;
47153;SDS011;32907;41.412;2.164;2023-12-20T02:43:22;10.10;;;6.78;;
47153;SDS011;32907;41.412;2.164;2023-12-20T02:45:50;8.23;;;6.60;;
47153;SDS011;32907;41.412;2.164;2023-12-20T02:48:18;7.32;;;6.55;;
47153;SDS011;32907;41.412;2.164;2023-12-20T02:50:47;7.93;;;7.13;;
47153;SDS011;32907;41.412;2.164;2023-12-20T02:53:17;8.27;;;7.15;;
47153;SDS011;32907;41.412;2.164;2023-12-20T02:55:45;9.60;;;7.00;;
47153;SDS011;32907;41.412;2.164;2023-12-20T02:58:13;8.98;;;6.80;;
47153;SDS011;32907;41.412;2.164;2023-12-20T03:00:42;7.72;;;6.80;;
47153;SDS011;32907;41.412;2.164;2023-12-20T03:03:10;7.75;;;6.95;;
47153;SDS011;32907;41.412;2.164;2023-12-20T03:05:38;7.80;;;7.00;;
47153;SDS011;32907;41.412;2.164;2023-12-20T03:08:06;8.05;;;6.93;;
47153;SDS011;32907;41.412;2.164;2023-12-20T03:10:34;8.00;;;6.97;;
47153;SDS011;32907;41.412;2.164;2023-12-20T03:13:02;8.15;;;7.07;;
47153;SDS011;32907;41.412;2.164;2023-12-20T03:15:31;8.48;;;7.38;;
47153;SDS011;32907;41.412;2.164;2023-12-20T03:18:00;8.88;;;7.35;;
47153;SDS011;32907;41.412;2.164;2023-12-20T03:20:29;8.52;;;7.40;;
47153;SDS011;32907;41.412;2.164;2023-12-20T03:23:00;8.05;;;7.25;;
47153;SDS011;32907;41.412;2.164;2023-12-20T03:25:29;9.10;;;7.50;;
47153;SDS011;32907;41.412;2.164;2023-12-20T03:27:57;8.32;;;7.43;;
47153;SDS011;32907;41.412;2.164;2023-12-20T03:30:25;8.73;;;7.70;;
47153;SDS011;32907;41.412;2.164;2023-12-20T03:32:53;8.30;;;7.38;;
47153;SDS011;32907;41.412;2.164;2023-12-20T03:35:22;8.23;;;7.20;;
47153;SDS011;32907;41.412;2.164;2023-12-20T03:37:50;9.73;;;8.25;;
47153;SDS011;32907;41.412;2.164;2023-12-20T03:40:18;8.88;;;7.82;;
47153;SDS011;32907;41.412;2.164;2023-12-20T03:42:46;11.32;;;8.10;;
47153;SDS011;32907;41.412;2.164;2023-12-20T03:45:15;8.70;;;7.45;;
47153;SDS011;32907;41.412;2.164;2023-12-20T03:47:43;8.70;;;7.70;;
47153;SDS011;32907;41.412;2.164;2023-12-20T03:50:11;8.93;;;7.70;;
47153;SDS011;32907;41.412;2.164;2023-12-20T03:52:40;8.85;;;7.55;;
47153;SDS011;32907;41.412;2.164;2023-12-20T03:55:08;10.18;;;7.78;;
47153;SDS011;32907;41.412;2.164;2023-12-20T03:57:36;9.75;;;7.60;;
47153;SDS011;32907;41.412;2.164;2023-12-20T04:00:04;9.70;;;7.25;;
47153;SDS011;32907;41.412;2.164;2023-12-20T04:02:41;8.70;;;7.70;;
47153;SDS011;32907;41.412;2.164;2023-12-20T04:05:09;9.73;;;8.02;;
47153;SDS011;32907;41.412;2.164;2023-12-20T04:07:38;12.60;;;7.82;;
47153;SDS011;32907;41.412;2.164;2023-12-20T04:10:07;9.70;;;8.70;;
47153;SDS011;32907;41.412;2.164;2023-12-20T04:12:35;8.65;;;7.75;;
47153;SDS011;32907;41.412;2.164;2023-12-20T04:15:04;9.88;;;7.53;;
47153;SDS011;32907;41.412;2.164;2023-12-20T04:17:37;9.75;;;7.70;;
47153;SDS011;32907;41.412;2.164;2023-12-20T04:20:05;10.70;;;8.90;;
47153;SDS011;32907;41.412;2.164;2023-12-20T04:22:34;9.88;;;8.50;;
47153;SDS011;32907;41.412;2.164;2023-12-20T04:25:02;9.93;;;8.52;;
47153;SDS011;32907;41.412;2.164;2023-12-20T04:27:31;11.15;;;8.88;;
47153;SDS011;32907;41.412;2.164;2023-12-20T04:29:59;10.23;;;8.60;;
47153;SDS011;32907;41.412;2.164;2023-12-20T04:32:27;9.75;;;8.68;;
47153;SDS011;32907;41.412;2.164;2023-12-20T04:34:55;10.23;;;8.82;;
47153;SDS011;32907;41.412;2.164;2023-12-20T04:37:24;10.63;;;9.07;;
47153;SDS011;32907;41.412;2.164;2023-12-20T04:39:52;13.43;;;10.25;;
47153;SDS011;32907;41.412;2.164;2023-12-20T04:42:21;10.60;;;8.68;;
47153;SDS011;32907;41.412;2.164;2023-12-20T04:44:49;12.40;;;8.52;;
47153;SDS011;32907;41.412;2.164;2023-12-20T04:47:17;11.00;;;9.40;;
47153;SDS011;32907;41.412;2.164;2023-12-20T04:49:45;10.93;;;9.70;;
47153;SDS011;32907;41.412;2.164;2023-12-20T04:52:14;10.55;;;9.43;;
47153;SDS011;32907;41.412;2.164;2023-12-20T04:54:42;11.48;;;9.25;;
47153;SDS011;32907;41.412;2.164;2023-12-20T04:57:11;10.98;;;9.32;;
47153;SDS011;32907;41.412;2.164;2023-12-20T04:59:40;11.38;;;8.88;;
47153;SDS011;32907;41.412;2.164;2023-12-20T05:02:09;9.93;;;8.63;;
47153;SDS011;32907;41.412;2.164;2023-12-20T05:04:37;9.48;;;8.38;;
47153;SDS011;32907;41.412;2.164;2023-12-20T05:07:05;11.23;;;8.18;;
47153;SDS011;32907;41.412;2.164;2023-12-20T05:09:34;9.95;;;7.93;;
47153;SDS011;32907;41.412;2.164;2023-12-20T05:12:02;9.55;;;7.93;;
47153;SDS011;32907;41.412;2.164;2023-12-20T05:14:30;9.25;;;7.75;;
47153;SDS011;32907;41.412;2.164;2023-12-20T05:16:58;9.13;;;7.47;;
47153;SDS011;32907;41.412;2.164;2023-12-20T05:19:26;9.02;;;7.70;;
47153;SDS011;32907;41.412;2.164;2023-12-20T05:21:54;8.65;;;7.65;;
47153;SDS011;32907;41.412;2.164;2023-12-20T05:24:23;10.85;;;8.57;;
47153;SDS011;32907;41.412;2.164;2023-12-20T05:26:51;9.40;;;7.75;;
47153;SDS011;32907;41.412;2.164;2023-12-20T05:29:20;11.75;;;8.35;;
47153;SDS011;32907;41.412;2.164;2023-12-20T05:31:49;10.15;;;8.07;;
47153;SDS011;32907;41.412;2.164;2023-12-20T05:34:17;10.73;;;8.43;;
47153;SDS011;32907;41.412;2.164;2023-12-20T05:36:45;11.60;;;9.32;;
47153;SDS011;32907;41.412;2.164;2023-12-20T05:39:13;11.63;;;9.38;;
47153;SDS011;32907;41.412;2.164;2023-12-20T05:41:42;9.90;;;8.90;;
47153;SDS011;32907;41.412;2.164;2023-12-20T05:44:10;11.38;;;9.13;;
47153;SDS011;32907;41.412;2.164;2023-12-20T05:46:38;11.90;;;9.57;;
47153;SDS011;32907;41.412;2.164;2023-12-20T05:49:07;12.00;;;10.07;;
47153;SDS011;32907;41.412;2.164;2023-12-20T05:51:35;12.40;;;9.98;;
47153;SDS011;32907;41.412;2.164;2023-12-20T05:54:03;11.55;;;10.35;;
47153;SDS011;32907;41.412;2.164;2023-12-20T05:56:31;10.38;;;9.27;;
47153;SDS011;32907;41.412;2.164;2023-12-20T05:58:59;11.90;;;10.70;;
47153;SDS011;32907;41.412;2.164;2023-12-20T06:01:27;13.70;;;11.60;;
47153;SDS011;32907;41.412;2.164;2023-12-20T06:03:55;12.63;;;11.07;;
47153;SDS011;32907;41.412;2.164;2023-12-20T06:06:23;11.65;;;10.45;;
47153;SDS011;32907;41.412;2.164;2023-12-20T06:08:52;12.77;;;11.15;;
47153;SDS011;32907;41.412;2.164;2023-12-20T06:11:20;13.63;;;11.27;;
47153;SDS011;32907;41.412;2.164;2023-12-20T06:13:48;14.80;;;11.32;;
47153;SDS011;32907;41.412;2.164;2023-12-20T06:16:19;11.68;;;10.15;;
47153;SDS011;32907;41.412;2.164;2023-12-20T06:18:47;11.52;;;9.15;;
47153;SDS011;32907;41.412;2.164;2023-12-20T06:21:16;11.52;;;9.43;;
47153;SDS011;32907;41.412;2.164;2023-12-20T06:23:45;10.23;;;8.93;;
47153;SDS011;32907;41.412;2.164;2023-12-20T06:26:13;9.75;;;8.85;;
47153;SDS011;32907;41.412;2.164;2023-12-20T06:28:41;10.02;;;8.18;;
47153;SDS011;32907;41.412;2.164;2023-12-20T06:31:10;9.65;;;8.48;;
47153;SDS011;32907;41.412;2.164;2023-12-20T06:33:39;9.38;;;8.32;;
47153;SDS011;32907;41.412;2.164;2023-12-20T06:36:12;9.75;;;7.63;;
47153;SDS011;32907;41.412;2.164;2023-12-20T06:38:40;7.85;;;7.05;;
47153;SDS011;32907;41.412;2.164;2023-12-20T06:41:12;10.63;;;8.57;;
47153;SDS011;32907;41.412;2.164;2023-12-20T06:43:41;11.05;;;7.57;;
47153;SDS011;32907;41.412;2.164;2023-12-20T06:46:17;11.52;;;7.50;;
47153;SDS011;32907;41.412;2.164;2023-12-20T06:48:45;7.82;;;7.03;;
47153;SDS011;32907;41.412;2.164;2023-12-20T06:51:14;9.43;;;6.95;;
47153;SDS011;32907;41.412;2.164;2023-12-20T06:53:43;10.55;;;6.47;;
47153;SDS011;32907;41.412;2.164;2023-12-20T06:56:11;8.30;;;6.72;;
47153;SDS011;32907;41.412;2.164;2023-12-20T06:58:44;7.72;;;6.57;;
47153;SDS011;32907;41.412;2.164;2023-12-20T07:01:13;7.65;;;6.25;;
47153;SDS011;32907;41.412;2.164;2023-12-20T07:03:43;7.93;;;7.13;;
47153;SDS011;32907;41.412;2.164;2023-12-20T07:06:11;8.80;;;7.40;;
47153;SDS011;32907;41.412;2.164;2023-12-20T07:08:39;8.15;;;6.78;;
47153;SDS011;32907;41.412;2.164;2023-12-20T07:11:08;9.18;;;6.78;;
47153;SDS011;32907;41.412;2.164;2023-12-20T07:13:36;8.10;;;6.75;;
47153;SDS011;32907;41.412;2.164;2023-12-20T07:16:04;8.20;;;6.47;;
47153;SDS011;32907;41.412;2.164;2023-12-20T07:18:32;7.65;;;6.72;;
47153;SDS011;32907;41.412;2.164;2023-12-20T07:21:00;7.55;;;6.18;;
47153;SDS011;32907;41.412;2.164;2023-12-20T07:23:29;6.68;;;5.75;;
47153;SDS011;32907;41.412;2.164;2023-12-20T07:25:57;9.35;;;6.18;;
47153;SDS011;32907;41.412;2.164;2023-12-20T07:28:25;6.20;;;5.57;;
47153;SDS011;32907;41.412;2.164;2023-12-20T07:30:53;7.43;;;5.35;;
47153;SDS011;32907;41.412;2.164;2023-12-20T07:33:21;8.85;;;7.47;;
47153;SDS011;32907;41.412;2.164;2023-12-20T07:35:49;11.95;;;10.65;;
47153;SDS011;32907;41.412;2.164;2023-12-20T07:38:19;10.77;;;9.25;;
47153;SDS011;32907;41.412;2.164;2023-12-20T07:40:48;10.93;;;8.15;;
47153;SDS011;32907;41.412;2.164;2023-12-20T07:43:16;8.95;;;7.63;;
47153;SDS011;32907;41.412;2.164;2023-12-20T07:45:44;8.60;;;5.97;;
47153;SDS011;32907;41.412;2.164;2023-12-20T07:48:12;6.75;;;5.65;;
47153;SDS011;32907;41.412;2.164;2023-12-20T07:50:41;6.55;;;4.90;;
47153;SDS011;32907;41.412;2.164;2023-12-20T07:53:09;7.78;;;5.07;;
47153;SDS011;32907;41.412;2.164;2023-12-20T07:55:38;6.13;;;5.30;;
47153;SDS011;32907;41.412;2.164;2023-12-20T07:58:07;5.72;;;5.13;;
47153;SDS011;32907;41.412;2.164;2023-12-20T08:00:35;6.43;;;4.82;;
47153;SDS011;32907;41.412;2.164;2023-12-20T08:03:03;5.03;;;4.35;;
47153;SDS011;32907;41.412;2.164;2023-12-20T08:05:32;5.72;;;4.60;;
47153;SDS011;32907;41.412;2.164;2023-12-20T08:08:00;8.00;;;4.60;;
47153;SDS011;32907;41.412;2.164;2023-12-20T08:10:28;8.45;;;5.32;;
47153;SDS011;32907;41.412;2.164;2023-12-20T08:12:57;7.88;;;5.60;;
47153;SDS011;32907;41.412;2.164;2023-12-20T08:15:26;6.90;;;5.05;;
47153;SDS011;32907;41.412;2.164;2023-12-20T08:17:54;10.88;;;5.22;;
47153;SDS011;32907;41.412;2.164;2023-12-20T08:20:23;8.88;;;5.07;;
47153;SDS011;32907;41.412;2.164;2023-12-20T08:23:06;5.50;;;4.63;;
47153;SDS011;32907;41.412;2.164;2023-12-20T08:25:34;6.00;;;4.78;;
47153;SDS011;32907;41.412;2.164;2023-12-20T08:28:02;5.00;;;4.40;;
47153;SDS011;32907;41.412;2.164;2023-12-20T08:30:32;8.07;;;4.38;;
47153;SDS011;32907;41.412;2.164;2023-12-20T08:33:00;5.55;;;3.90;;
47153;SDS011;32907;41.412;2.164;2023-12-20T08:35:29;4.82;;;4.32;;
47153;SDS011;32907;41.412;2.164;2023-12-20T08:37:57;6.15;;;4.47;;
47153;SDS011;32907;41.412;2.164;2023-12-20T08:40:25;7.30;;;5.97;;
47153;SDS011;32907;41.412;2.164;2023-12-20T08:42:54;7.43;;;6.10;;
47153;SDS011;32907;41.412;2.164;2023-12-20T08:45:23;8.32;;;5.95;;
47153;SDS011;32907;41.412;2.164;2023-12-20T08:47:52;9.90;;;5.90;;
47153;SDS011;32907;41.412;2.164;2023-12-20T08:50:20;8.70;;;4.82;;
47153;SDS011;32907;41.412;2.164;2023-12-20T08:52:48;7.32;;;5.10;;
47153;SDS011;32907;41.412;2.164;2023-12-20T08:55:17;7.43;;;5.05;;
47153;SDS011;32907;41.412;2.164;2023-12-20T08:57:45;7.80;;;5.15;;
47153;SDS011;32907;41.412;2.164;2023-12-20T09:00:14;9.80;;;5.90;;
47153;SDS011;32907;41.412;2.164;2023-12-20T09:02:43;6.88;;;6.05;;
47153;SDS011;32907;41.412;2.164;2023-12-20T09:05:11;8.70;;;6.63;;
47153;SDS011;32907;41.412;2.164;2023-12-20T09:07:40;7.78;;;6.50;;
47153;SDS011;32907;41.412;2.164;2023-12-20T09:10:08;9.73;;;7.07;;
47153;SDS011;32907;41.412;2.164;2023-12-20T09:12:36;7.95;;;6.50;;
47153;SDS011;32907;41.412;2.164;2023-12-20T09:15:07;11.35;;;7.65;;
47153;SDS011;32907;41.412;2.164;2023-12-20T09:17:36;10.32;;;7.43;;
47153;SDS011;32907;41.412;2.164;2023-12-20T09:20:04;9.50;;;7.53;;
47153;SDS011;32907;41.412;2.164;2023-12-20T09:22:36;10.15;;;7.38;;
47153;SDS011;32907;41.412;2.164;2023-12-20T09:25:06;9.30;;;7.20;;
47153;SDS011;32907;41.412;2.164;2023-12-20T09:27:34;7.63;;;6.43;;
47153;SDS011;32907;41.412;2.164;2023-12-20T09:30:02;7.20;;;5.97;;
47153;SDS011;32907;41.412;2.164;2023-12-20T09:32:32;7.43;;;5.80;;
47153;SDS011;32907;41.412;2.164;2023-12-20T09:35:01;9.45;;;5.78;;
47153;SDS011;32907;41.412;2.164;2023-12-20T09:37:30;8.27;;;5.57;;
47153;SDS011;32907;41.412;2.164;2023-12-20T09:39:58;8.07;;;6.18;;
47153;SDS011;32907;41.412;2.164;2023-12-20T09:45:25;7.35;;;5.78;;
47153;SDS011;32907;41.412;2.164;2023-12-20T09:47:53;6.85;;;5.25;;
47153;SDS011;32907;41.412;2.164;2023-12-20T09:50:24;6.57;;;5.53;;
47153;SDS011;32907;41.412;2.164;2023-12-20T09:52:53;6.80;;;5.55;;
47153;SDS011;32907;41.412;2.164;2023-12-20T09:55:26;7.40;;;5.30;;
47153;SDS011;32907;41.412;2.164;2023-12-20T09:57:59;7.35;;;5.97;;
47153;SDS011;32907;41.412;2.164;2023-12-20T10:00:28;7.32;;;6.22;;
47153;SDS011;32907;41.412;2.164;2023-12-20T10:02:57;9.75;;;6.25;;
47153;SDS011;32907;41.412;2.164;2023-12-20T10:05:29;10.52;;;7.32;;
47153;SDS011;32907;41.412;2.164;2023-12-20T10:08:00;8.32;;;6.95;;
47153;SDS011;32907;41.412;2.164;2023-12-20T10:10:29;7.68;;;6.18;;
47153;SDS011;32907;41.412;2.164;2023-12-20T10:13:12;6.57;;;5.72;;
47153;SDS011;32907;41.412;2.164;2023-12-20T10:15:41;8.00;;;5.80;;
47153;SDS011;32907;41.412;2.164;2023-12-20T10:18:11;9.32;;;5.80;;
47153;SDS011;32907;41.412;2.164;2023-12-20T10:20:41;9.25;;;5.85;;
47153;SDS011;32907;41.412;2.164;2023-12-20T10:23:11;7.65;;;6.63;;
47153;SDS011;32907;41.412;2.164;2023-12-20T10:25:41;9.77;;;7.15;;
47153;SDS011;32907;41.412;2.164;2023-12-20T10:28:11;9.88;;;6.57;;
47153;SDS011;32907;41.412;2.164;2023-12-20T10:30:41;8.50;;;6.57;;
47153;SDS011;32907;41.412;2.164;2023-12-20T10:33:10;10.77;;;6.60;;
47153;SDS011;32907;41.412;2.164;2023-12-20T10:35:39;10.38;;;6.53;;
47153;SDS011;32907;41.412;2.164;2023-12-20T10:38:12;8.02;;;6.93;;
47153;SDS011;32907;41.412;2.164;2023-12-20T10:40:42;10.30;;;6.63;;
47153;SDS011;32907;41.412;2.164;2023-12-20T10:43:14;7.60;;;6.38;;
47153;SDS011;32907;41.412;2.164;2023-12-20T10:45:43;9.48;;;6.75;;
47153;SDS011;32907;41.412;2.164;2023-12-20T10:48:12;8.00;;;7.15;;
47153;SDS011;32907;41.412;2.164;2023-12-20T10:50:40;9.30;;;7.18;;
47153;SDS011;32907;41.412;2.164;2023-12-20T10:53:09;9.63;;;8.00;;
47153;SDS011;32907;41.412;2.164;2023-12-20T10:55:40;8.45;;;7.05;;
47153;SDS011;32907;41.412;2.164;2023-12-20T10:58:10;8.98;;;6.13;;
47153;SDS011;32907;41.412;2.164;2023-12-20T11:00:39;5.70;;;4.90;;
47153;SDS011;32907;41.412;2.164;2023-12-20T11:03:09;6.70;;;4.70;;
47153;SDS011;32907;41.412;2.164;2023-12-20T11:05:44;8.38;;;4.93;;
47153;SDS011;32907;41.412;2.164;2023-12-20T11:09:38;6.30;;;4.40;;
47153;SDS011;32907;41.412;2.164;2023-12-20T11:11:53;6.80;;;4.85;;
47153;SDS011;32907;41.412;2.164;2023-12-20T11:14:27;6.35;;;4.57;;
47153;SDS011;32907;41.412;2.164;2023-12-20T11:17:10;8.27;;;4.68;;
47153;SDS011;32907;41.412;2.164;2023-12-20T11:22:25;9.20;;;5.60;;
47153;SDS011;32907;41.412;2.164;2023-12-20T11:25:06;11.52;;;6.57;;
47153;SDS011;32907;41.412;2.164;2023-12-20T11:27:41;9.23;;;6.93;;
47153;SDS011;32907;41.412;2.164;2023-12-20T11:30:13;10.40;;;6.30;;
47153;SDS011;32907;41.412;2.164;2023-12-20T11:32:42;10.25;;;7.22;;
47153;SDS011;32907;41.412;2.164;2023-12-20T11:37:43;11.85;;;6.75;;
47153;SDS011;32907;41.412;2.164;2023-12-20T11:40:16;8.45;;;6.47;;
47153;SDS011;32907;41.412;2.164;2023-12-20T11:42:48;6.88;;;5.32;;
47153;SDS011;32907;41.412;2.164;2023-12-20T11:45:18;6.45;;;5.32;;
47153;SDS011;32907;41.412;2.164;2023-12-20T11:47:50;7.80;;;5.53;;
47153;SDS011;32907;41.412;2.164;2023-12-20T11:50:21;6.55;;;4.93;;
47153;SDS011;32907;41.412;2.164;2023-12-20T11:52:52;5.72;;;4.50;;
47153;SDS011;32907;41.412;2.164;2023-12-20T11:55:22;5.93;;;4.80;;
47153;SDS011;32907;41.412;2.164;2023-12-20T11:57:54;5.28;;;4.68;;
47153;SDS011;32907;41.412;2.164;2023-12-20T12:00:22;7.22;;;5.00;;
47153;SDS011;32907;41.412;2.164;2023-12-20T12:02:57;5.97;;;4.30;;
47153;SDS011;32907;41.412;2.164;2023-12-20T12:05:27;5.07;;;4.18;;
47153;SDS011;32907;41.412;2.164;2023-12-20T12:07:56;8.75;;;5.43;;
47153;SDS011;32907;41.412;2.164;2023-12-20T12:10:24;7.30;;;5.60;;
47153;SDS011;32907;41.412;2.164;2023-12-20T12:12:53;7.03;;;4.75;;
47153;SDS011;32907;41.412;2.164;2023-12-20T12:15:22;6.70;;;5.32;;
47153;SDS011;32907;41.412;2.164;2023-12-20T12:17:56;8.25;;;5.10;;
47153;SDS011;32907;41.412;2.164;2023-12-20T12:20:25;6.88;;;4.53;;
47153;SDS011;32907;41.412;2.164;2023-12-20T12:23:00;6.28;;;4.82;;
47153;SDS011;32907;41.412;2.164;2023-12-20T12:25:32;6.57;;;4.85;;
47153;SDS011;32907;41.412;2.164;2023-12-20T12:28:08;9.05;;;5.45;;
47153;SDS011;32907;41.412;2.164;2023-12-20T12:30:36;7.32;;;5.68;;
47153;SDS011;32907;41.412;2.164;2023-12-20T12:33:12;8.50;;;6.18;;
47153;SDS011;32907;41.412;2.164;2023-12-20T12:35:41;9.55;;;6.43;;
47153;SDS011;32907;41.412;2.164;2023-12-20T12:38:09;9.18;;;6.38;;
47153;SDS011;32907;41.412;2.164;2023-12-20T12:40:38;9.30;;;6.60;;
47153;SDS011;32907;41.412;2.164;2023-12-20T12:43:08;8.90;;;5.55;;
47153;SDS011;32907;41.412;2.164;2023-12-20T12:45:36;9.07;;;5.32;;
47153;SDS011;32907;41.412;2.164;2023-12-20T12:48:04;7.57;;;5.70;;
47153;SDS011;32907;41.412;2.164;2023-12-20T12:50:33;6.85;;;5.60;;
47153;SDS011;32907;41.412;2.164;2023-12-20T12:53:01;7.80;;;6.07;;
47153;SDS011;32907;41.412;2.164;2023-12-20T12:55:30;10.75;;;8.15;;
47153;SDS011;32907;41.412;2.164;2023-12-20T12:57:58;10.95;;;8.48;;
47153;SDS011;32907;41.412;2.164;2023-12-20T13:00:27;13.73;;;10.65;;
47153;SDS011;32907;41.412;2.164;2023-12-20T13:02:55;14.00;;;12.05;;
47153;SDS011;32907;41.412;2.164;2023-12-20T13:05:23;16.10;;;11.77;;
47153;SDS011;32907;41.412;2.164;2023-12-20T13:07:51;13.02;;;10.50;;
47153;SDS011;32907;41.412;2.164;2023-12-20T13:10:20;62.85;;;36.90;;
47153;SDS011;32907;41.412;2.164;2023-12-20T13:12:49;533.75;;;307.67;;
47153;SDS011;32907;41.412;2.164;2023-12-20T13:15:17;457.75;;;262.45;;
47153;SDS011;32907;41.412;2.164;2023-12-20T13:17:46;352.10;;;202.40;;
47153;SDS011;32907;41.412;2.164;2023-12-20T13:20:14;224.80;;;133.45;;
47153;SDS011;32907;41.412;2.164;2023-12-20T13:22:43;146.15;;;90.88;;
47153;SDS011;32907;41.412;2.164;2023-12-20T13:25:11;97.10;;;60.85;;
47153;SDS011;32907;41.412;2.164;2023-12-20T13:27:40;64.43;;;42.50;;
47153;SDS011;32907;41.412;2.164;2023-12-20T13:30:09;42.42;;;29.90;;
47153;SDS011;32907;41.412;2.164;2023-12-20T13:32:38;36.05;;;24.60;;
47153;SDS011;32907;41.412;2.164;2023-12-20T13:35:07;27.33;;;19.35;;
47153;SDS011;32907;41.412;2.164;2023-12-20T13:37:35;21.55;;;14.88;;
47153;SDS011;32907;41.412;2.164;2023-12-20T13:40:05;16.42;;;12.15;;
47153;SDS011;32907;41.412;2.164;2023-12-20T13:42:33;16.40;;;9.90;;
47153;SDS011;32907;41.412;2.164;2023-12-20T13:45:02;12.10;;;8.82;;
47153;SDS011;32907;41.412;2.164;2023-12-20T13:47:32;11.65;;;8.00;;
47153;SDS011;32907;41.412;2.164;2023-12-20T13:50:01;12.50;;;7.03;;
47153;SDS011;32907;41.412;2.164;2023-12-20T13:52:31;7.72;;;6.28;;
47153;SDS011;32907;41.412;2.164;2023-12-20T13:55:01;7.45;;;6.00;;
47153;SDS011;32907;41.412;2.164;2023-12-20T13:57:30;7.68;;;5.82;;
47153;SDS011;32907;41.412;2.164;2023-12-20T14:00:18;6.95;;;4.97;;
47153;SDS011;32907;41.412;2.164;2023-12-20T14:02:47;6.00;;;4.75;;
47153;SDS011;32907;41.412;2.164;2023-12-20T14:05:15;8.75;;;5.75;;
47153;SDS011;32907;41.412;2.164;2023-12-20T14:07:46;9.27;;;8.00;;
47153;SDS011;32907;41.412;2.164;2023-12-20T14:10:15;11.15;;;9.93;;
47153;SDS011;32907;41.412;2.164;2023-12-20T14:12:43;11.85;;;8.82;;
47153;SDS011;32907;41.412;2.164;2023-12-20T14:15:12;10.25;;;8.85;;
47153;SDS011;32907;41.412;2.164;2023-12-20T14:17:41;10.93;;;7.93;;
47153;SDS011;32907;41.412;2.164;2023-12-20T14:20:12;9.77;;;8.23;;
47153;SDS011;32907;41.412;2.164;2023-12-20T14:22:40;9.98;;;7.95;;
47153;SDS011;32907;41.412;2.164;2023-12-20T14:25:12;12.13;;;7.22;;
47153;SDS011;32907;41.412;2.164;2023-12-20T14:27:41;12.90;;;7.25;;
47153;SDS011;32907;41.412;2.164;2023-12-20T14:30:14;12.32;;;7.82;;
47153;SDS011;32907;41.412;2.164;2023-12-20T14:32:44;13.82;;;7.88;;
47153;SDS011;32907;41.412;2.164;2023-12-20T14:35:12;11.50;;;8.00;;
47153;SDS011;32907;41.412;2.164;2023-12-20T14:37:41;11.50;;;7.85;;
47153;SDS011;32907;41.412;2.164;2023-12-20T14:40:09;11.57;;;7.95;;
47153;SDS011;32907;41.412;2.164;2023-12-20T14:42:44;11.75;;;7.95;;
47153;SDS011;32907;41.412;2.164;2023-12-20T14:45:14;10.85;;;7.97;;
47153;SDS011;32907;41.412;2.164;2023-12-20T14:47:44;12.02;;;8.05;;
47153;SDS011;32907;41.412;2.164;2023-12-20T14:50:13;12.15;;;7.93;;
47153;SDS011;32907;41.412;2.164;2023-12-20T14:52:46;12.10;;;8.38;;
47153;SDS011;32907;41.412;2.164;2023-12-20T14:55:15;13.50;;;9.10;;
47153;SDS011;32907;41.412;2.164;2023-12-20T14:57:45;12.45;;;9.95;;
47153;SDS011;32907;41.412;2.164;2023-12-20T15:00:13;11.02;;;9.13;;
47153;SDS011;32907;41.412;2.164;2023-12-20T15:02:45;17.63;;;10.02;;
47153;SDS011;32907;41.412;2.164;2023-12-20T15:05:14;12.90;;;9.88;;